createdAt,value
2023-04-18T00:01:50.108Z,102040.56
2023-04-18T00:04:18.188Z,102037.81
2023-04-18T00:06:47.108Z,102040.47
2023-04-18T00:09:13.880Z,102037.97
2023-04-18T00:11:40.752Z,102040.69
2023-04-18T00:14:08.411Z,102042.44
2023-04-18T00:16:36.069Z,102039.25
2023-04-18T00:19:04.369Z,102031.84
2023-04-18T00:21:31.892Z,102034.72
2023-04-18T00:23:58.689Z,102032.47
2023-04-18T00:26:25.640Z,102028.34
2023-04-18T00:28:52.420Z,102028.84
2023-04-18T00:31:19.190Z,102033.28
2023-04-18T00:33:45.976Z,102028.88
2023-04-18T00:36:12.763Z,102030.00
2023-04-18T00:38:39.498Z,102029.28
2023-04-18T00:41:06.246Z,102024.47
2023-04-18T00:43:34.994Z,102029.00
2023-04-18T00:46:01.871Z,102033.34
2023-04-18T00:48:28.777Z,102034.63
2023-04-18T00:50:55.750Z,102027.44
2023-04-18T00:53:22.501Z,102033.00
2023-04-18T00:55:49.221Z,102035.88
2023-04-18T00:58:16.004Z,102028.91
2023-04-18T01:00:42.814Z,102028.97
2023-04-18T01:03:10.625Z,102029.38
2023-04-18T01:05:37.658Z,102025.19
2023-04-18T01:08:04.558Z,102025.63
2023-04-18T01:10:31.321Z,102029.41
2023-04-18T01:12:58.169Z,102035.00
2023-04-18T01:15:24.907Z,102028.25
2023-04-18T01:17:52.336Z,102028.31
2023-04-18T01:20:19.307Z,102023.28
2023-04-18T01:22:46.377Z,102023.53
2023-04-18T01:25:13.178Z,102018.66
2023-04-18T01:27:39.936Z,102015.75
2023-04-18T01:30:06.686Z,102019.75
2023-04-18T01:32:33.433Z,102018.72
2023-04-18T01:35:00.203Z,102018.69
2023-04-18T01:37:26.931Z,102019.00
2023-04-18T01:39:53.769Z,102015.66
2023-04-18T01:42:20.563Z,102012.97
2023-04-18T01:44:47.305Z,102013.66
2023-04-18T01:47:14.056Z,102010.03
2023-04-18T01:49:46.509Z,102012.13
2023-04-18T01:52:14.140Z,102011.97
2023-04-18T01:54:40.915Z,102018.00
2023-04-18T01:57:07.758Z,102011.09
2023-04-18T01:59:34.583Z,102011.09
2023-04-18T02:02:01.508Z,102017.91
2023-04-18T02:04:28.322Z,102012.47
2023-04-18T02:06:55.063Z,102013.09
2023-04-18T02:09:21.805Z,102014.59
2023-04-18T02:11:48.595Z,102008.72
2023-04-18T02:14:15.683Z,102012.13
2023-04-18T02:16:42.558Z,102014.66
2023-04-18T02:19:09.357Z,102014.75
2023-04-18T02:21:36.093Z,102017.16
2023-04-18T02:24:02.880Z,102013.00
2023-04-18T02:26:29.643Z,102014.28
2023-04-18T02:28:58.458Z,102017.25
2023-04-18T02:31:25.256Z,102012.34
2023-04-18T02:33:52.035Z,102013.91
2023-04-18T02:36:18.781Z,102020.34
2023-04-18T02:38:45.630Z,102012.09
2023-04-18T02:41:15.200Z,102018.03
2023-04-18T02:43:42.091Z,102017.59
2023-04-18T02:46:08.834Z,102012.88
2023-04-18T02:48:35.637Z,102015.72
2023-04-18T02:51:03.269Z,102018.88
2023-04-18T02:53:30.068Z,102022.38
2023-04-18T02:55:56.919Z,102021.16
2023-04-18T02:58:23.847Z,102022.03
2023-04-18T03:00:50.609Z,102024.28
2023-04-18T03:03:17.436Z,102032.78
2023-04-18T03:05:44.283Z,102029.78
2023-04-18T03:08:11.027Z,102022.19
2023-04-18T03:10:37.807Z,102025.63
2023-04-18T03:13:04.581Z,102029.91
2023-04-18T03:15:31.442Z,102022.75
2023-04-18T03:17:58.305Z,102031.41
2023-04-18T03:20:25.265Z,102040.09
2023-04-18T03:22:52.449Z,102033.25
2023-04-18T03:25:19.243Z,102031.63
2023-04-18T03:27:46.034Z,102032.00
2023-04-18T03:30:13.265Z,102029.66
2023-04-18T03:32:42.024Z,102031.50
2023-04-18T03:35:08.976Z,102028.97
2023-04-18T03:37:36.075Z,102034.38
2023-04-18T03:40:05.139Z,102023.09
2023-04-18T03:42:31.976Z,102036.03
2023-04-18T03:44:58.706Z,102036.28
2023-04-18T03:47:25.506Z,102035.78
2023-04-18T03:49:54.095Z,102037.16
2023-04-18T03:52:20.889Z,102043.25
2023-04-18T03:54:47.673Z,102034.72
2023-04-18T03:57:15.811Z,102038.13
2023-04-18T03:59:42.648Z,102041.91
2023-04-18T04:02:09.645Z,102045.56
2023-04-18T04:04:36.933Z,102048.00
2023-04-18T04:07:03.684Z,102051.03
2023-04-18T04:09:30.509Z,102050.53
2023-04-18T04:11:57.240Z,102052.72
2023-04-18T04:14:24.524Z,102058.72
2023-04-18T04:16:51.321Z,102059.22
2023-04-18T04:19:18.084Z,102061.28
2023-04-18T04:21:44.830Z,102063.94
2023-04-18T04:24:11.848Z,102064.84
2023-04-18T04:26:38.773Z,102067.59
2023-04-18T04:29:05.531Z,102061.91
2023-04-18T04:31:32.336Z,102069.16
2023-04-18T04:33:59.166Z,102076.47
2023-04-18T04:36:27.095Z,102076.16
2023-04-18T04:38:53.902Z,102076.56
2023-04-18T04:41:22.222Z,102081.13
2023-04-18T04:43:49.743Z,102073.44
2023-04-18T04:46:19.990Z,102083.00
2023-04-18T04:48:46.953Z,102082.00
2023-04-18T04:51:13.742Z,102079.03
2023-04-18T04:53:40.476Z,102079.03
2023-04-18T04:56:07.211Z,102081.81
2023-04-18T04:58:33.993Z,102082.22
2023-04-18T05:01:00.971Z,102082.22
2023-04-18T05:03:27.918Z,102081.66
2023-04-18T05:05:54.795Z,102085.69
2023-04-18T05:08:21.552Z,102081.09
2023-04-18T05:10:49.636Z,102094.34
2023-04-18T05:13:16.431Z,102094.72
2023-04-18T05:15:43.184Z,102104.16
2023-04-18T05:18:10.009Z,102097.81
2023-04-18T05:20:36.899Z,102103.13
2023-04-18T05:23:03.655Z,102098.31
2023-04-18T05:25:31.545Z,102102.06
2023-04-18T05:27:58.469Z,102093.19
2023-04-18T05:30:25.250Z,102098.81
2023-04-18T05:32:52.031Z,102102.91
2023-04-18T05:35:18.835Z,102097.91
2023-04-18T05:37:45.591Z,102098.47
2023-04-18T05:40:12.328Z,102101.47
2023-04-18T05:42:39.224Z,102103.34
2023-04-18T05:45:05.972Z,102105.28
2023-04-18T05:47:33.473Z,102110.66
2023-04-18T05:50:00.395Z,102108.16
2023-04-18T05:52:27.192Z,102104.59
2023-04-18T05:54:54.059Z,102113.50
2023-04-18T05:57:20.803Z,102111.81
2023-04-18T05:59:47.620Z,102110.75
2023-04-18T06:02:14.484Z,102117.06
2023-04-18T06:04:44.849Z,102109.25
2023-04-18T06:07:11.904Z,102125.03
2023-04-18T06:09:38.659Z,102115.41
2023-04-18T06:12:05.459Z,102129.47
2023-04-18T06:14:32.286Z,102123.16
2023-04-18T06:16:59.017Z,102128.69
2023-04-18T06:19:25.815Z,102130.88
2023-04-18T06:21:52.579Z,102123.66
2023-04-18T06:24:19.346Z,102134.66
2023-04-18T06:26:46.359Z,102138.50
2023-04-18T06:29:13.137Z,102126.34
2023-04-18T06:31:41.037Z,102135.53
2023-04-18T06:34:07.805Z,102129.31
2023-04-18T06:36:34.564Z,102132.28
2023-04-18T06:39:01.357Z,102138.72
2023-04-18T06:41:28.109Z,102141.41
2023-04-18T06:44:03.421Z,102147.09
2023-04-18T06:46:31.206Z,102135.56
2023-04-18T06:48:58.201Z,102140.28
2023-04-18T06:51:25.091Z,102147.44
2023-04-18T06:53:55.039Z,102143.16
2023-04-18T06:56:21.894Z,102148.19
2023-04-18T06:58:48.749Z,102153.28
2023-04-18T07:01:15.871Z,102146.22
2023-04-18T07:03:42.752Z,102149.25
2023-04-18T07:06:10.755Z,102151.09
2023-04-18T07:08:37.660Z,102143.41
2023-04-18T07:11:04.439Z,102137.94
2023-04-18T07:13:31.310Z,102139.69
2023-04-18T07:15:58.062Z,102141.41
2023-04-18T07:18:36.740Z,102146.91
2023-04-18T07:21:07.225Z,102139.25
2023-04-18T07:23:34.255Z,102138.38
2023-04-18T07:26:02.630Z,102144.31
2023-04-18T07:28:29.554Z,102153.28
2023-04-18T07:30:56.886Z,102143.59
2023-04-18T07:33:23.747Z,102152.78
2023-04-18T07:35:51.265Z,102153.94
2023-04-18T07:38:18.039Z,102158.22
2023-04-18T07:40:44.817Z,102157.97
2023-04-18T07:43:11.613Z,102154.69
2023-04-18T07:45:38.426Z,102153.78
2023-04-18T07:48:05.274Z,102164.44
2023-04-18T07:50:32.073Z,102159.94
2023-04-18T07:52:58.855Z,102158.31
2023-04-18T07:55:25.589Z,102165.44
2023-04-18T07:57:52.333Z,102177.97
2023-04-18T08:00:19.225Z,102174.16
2023-04-18T08:02:46.366Z,102170.34
2023-04-18T08:05:13.389Z,102172.91
2023-04-18T08:07:40.348Z,102178.03
2023-04-18T08:10:07.103Z,102177.06
2023-04-18T08:12:33.906Z,102176.66
2023-04-18T08:15:00.762Z,102174.47
2023-04-18T08:17:27.676Z,102177.47
2023-04-18T08:19:54.501Z,102181.16
2023-04-18T08:22:21.293Z,102174.44
2023-04-18T08:25:03.305Z,102183.06
2023-04-18T08:27:31.342Z,102174.78
2023-04-18T08:29:58.204Z,102175.41
2023-04-18T08:32:25.104Z,102173.47
2023-04-18T08:34:51.931Z,102178.38
2023-04-18T08:37:18.681Z,102176.56
2023-04-18T08:39:45.412Z,102171.59
2023-04-18T08:42:12.195Z,102176.13
2023-04-18T08:44:39.018Z,102171.75
2023-04-18T08:47:06.070Z,102170.16
2023-04-18T08:49:33.954Z,102172.28
2023-04-18T08:52:01.055Z,102170.16
2023-04-18T08:54:30.288Z,102178.41
2023-04-18T08:56:58.154Z,102181.09
2023-04-18T08:59:25.069Z,102171.22
2023-04-18T09:01:52.912Z,102174.63
2023-04-18T09:04:22.110Z,102180.84
2023-04-18T09:06:49.171Z,102173.81
2023-04-18T09:09:16.040Z,102175.59
2023-04-18T09:11:42.818Z,102168.91
2023-04-18T09:14:09.621Z,102173.66
2023-04-18T09:16:37.678Z,102167.56
2023-04-18T09:19:06.719Z,102177.56
2023-04-18T09:21:35.965Z,102170.19
2023-04-18T09:24:02.740Z,102166.34
2023-04-18T09:26:30.169Z,102161.19
2023-04-18T09:28:57.318Z,102176.03
2023-04-18T09:31:24.225Z,102170.41
2023-04-18T09:33:52.653Z,102165.84
2023-04-18T09:36:19.589Z,102166.50
2023-04-18T09:38:46.406Z,102166.63
2023-04-18T09:41:13.344Z,102165.13
2023-04-18T09:43:40.148Z,102167.78
2023-04-18T09:46:06.929Z,102174.63
2023-04-18T09:48:33.732Z,102171.09
2023-04-18T09:51:00.505Z,102167.69
2023-04-18T09:53:27.289Z,102168.44
2023-04-18T09:55:55.545Z,102165.50
2023-04-18T09:58:24.320Z,102167.28
2023-04-18T10:00:51.066Z,102163.03
2023-04-18T10:03:18.031Z,102159.81
2023-04-18T10:05:45.747Z,102161.69
2023-04-18T10:08:12.565Z,102160.78
2023-04-18T10:10:39.395Z,102163.28
2023-04-18T10:13:06.459Z,102153.16
2023-04-18T10:15:33.253Z,102153.81
2023-04-18T10:18:05.108Z,102152.84
2023-04-18T10:20:32.706Z,102161.59
2023-04-18T10:22:59.492Z,102158.75
2023-04-18T10:25:26.296Z,102156.38
2023-04-18T10:27:53.045Z,102158.19
2023-04-18T10:30:19.801Z,102159.88
2023-04-18T10:32:46.859Z,102154.91
2023-04-18T10:35:13.981Z,102155.28
2023-04-18T10:37:41.046Z,102152.59
2023-04-18T10:40:07.834Z,102149.31
2023-04-18T10:42:34.596Z,102156.38
2023-04-18T10:45:01.364Z,102155.84
2023-04-18T10:47:28.340Z,102164.75
2023-04-18T10:49:55.406Z,102152.53
2023-04-18T10:52:22.199Z,102149.78
2023-04-18T10:54:48.950Z,102147.38
2023-04-18T10:57:15.767Z,102151.25
2023-04-18T10:59:42.651Z,102149.84
2023-04-18T11:02:09.515Z,102149.44
2023-04-18T11:04:36.361Z,102153.81
2023-04-18T11:07:03.146Z,102145.53
2023-04-18T11:09:30.019Z,102150.31
2023-04-18T11:11:56.771Z,102140.91
2023-04-18T11:14:23.526Z,102134.78
2023-04-18T11:16:50.316Z,102136.94
2023-04-18T11:19:17.101Z,102131.94
2023-04-18T11:21:43.945Z,102136.69
2023-04-18T11:24:10.949Z,102130.69
2023-04-18T11:26:37.787Z,102137.28
2023-04-18T11:29:04.557Z,102127.13
2023-04-18T11:31:31.434Z,102131.94
2023-04-18T11:33:58.237Z,102131.09
2023-04-18T11:36:25.027Z,102131.25
2023-04-18T11:38:51.831Z,102133.78
2023-04-18T11:41:18.597Z,102127.50
2023-04-18T11:43:45.370Z,102124.25
2023-04-18T11:46:12.360Z,102123.13
2023-04-18T11:48:39.270Z,102121.72
2023-04-18T11:51:06.372Z,102119.53
2023-04-18T11:53:33.550Z,102126.19
2023-04-18T11:56:00.916Z,102130.19
2023-04-18T11:58:27.638Z,102130.25
2023-04-18T12:00:54.425Z,102126.69
2023-04-18T12:03:22.507Z,102135.16
2023-04-18T12:05:49.577Z,102131.34
2023-04-18T12:08:16.681Z,102135.81
2023-04-18T12:10:43.429Z,102133.00
2023-04-18T12:13:10.241Z,102132.13
2023-04-18T12:15:38.562Z,102135.81
2023-04-18T12:18:06.048Z,102131.88
2023-04-18T12:20:32.838Z,102133.78
2023-04-18T12:22:59.602Z,102136.72
2023-04-18T12:25:27.758Z,102127.81
2023-04-18T12:27:54.742Z,102128.97
2023-04-18T12:30:22.363Z,102135.94
2023-04-18T12:32:49.229Z,102126.38
2023-04-18T12:35:16.021Z,102130.78
2023-04-18T12:37:42.828Z,102126.66
2023-04-18T12:40:10.713Z,102126.69
2023-04-18T12:42:37.521Z,102128.88
2023-04-18T12:45:07.543Z,102125.59
2023-04-18T12:47:35.540Z,102128.72
2023-04-18T12:50:02.363Z,102130.31
2023-04-18T12:52:30.107Z,102121.34
2023-04-18T12:54:57.714Z,102124.00
2023-04-18T12:57:24.593Z,102125.59
2023-04-18T12:59:51.380Z,102134.63
2023-04-18T13:02:18.227Z,102131.59
2023-04-18T13:04:45.249Z,102125.75
2023-04-18T13:07:12.105Z,102131.00
2023-04-18T13:09:38.858Z,102126.81
2023-04-18T13:12:05.874Z,102129.13
2023-04-18T13:14:32.686Z,102129.06
2023-04-18T13:16:59.502Z,102118.72
2023-04-18T13:19:26.392Z,102119.16
2023-04-18T13:21:53.238Z,102116.00
2023-04-18T13:24:20.232Z,102113.63
2023-04-18T13:26:46.999Z,102113.22
2023-04-18T13:29:14.049Z,102114.81
2023-04-18T13:31:41.268Z,102109.63
2023-04-18T13:34:08.051Z,102111.03
2023-04-18T13:36:35.104Z,102116.16
2023-04-18T13:39:04.275Z,102108.16
2023-04-18T13:41:31.102Z,102108.03
2023-04-18T13:43:57.928Z,102102.78
2023-04-18T13:46:26.417Z,102104.59
2023-04-18T13:48:53.228Z,102110.63
2023-04-18T13:51:20.165Z,102108.34
2023-04-18T13:53:47.063Z,102097.63
2023-04-18T13:56:13.877Z,102097.84
2023-04-18T13:58:40.923Z,102104.41
2023-04-18T14:01:07.745Z,102108.75
2023-04-18T14:03:36.242Z,102112.38
2023-04-18T14:06:04.939Z,102107.75
2023-04-18T14:08:31.712Z,102107.06
2023-04-18T14:10:58.505Z,102103.00
2023-04-18T14:13:25.593Z,102103.22
2023-04-18T14:15:52.377Z,102101.63
2023-04-18T14:18:21.538Z,102095.56
2023-04-18T14:20:48.587Z,102106.09
2023-04-18T14:23:15.971Z,102112.09
2023-04-18T14:25:42.790Z,102099.50
2023-04-18T14:28:09.775Z,102103.59
2023-04-18T14:30:36.606Z,102107.81
2023-04-18T14:33:03.779Z,102105.03
2023-04-18T14:35:30.666Z,102106.16
2023-04-18T14:37:57.428Z,102101.91
2023-04-18T14:40:24.229Z,102104.09
2023-04-18T14:42:51.256Z,102102.88
2023-04-18T14:45:18.059Z,102099.41
2023-04-18T14:47:44.901Z,102100.34
2023-04-18T14:50:15.365Z,102100.25
2023-04-18T14:52:42.167Z,102103.75
2023-04-18T14:55:08.907Z,102102.47
2023-04-18T14:57:35.691Z,102102.25
2023-04-18T15:00:03.914Z,102099.50
2023-04-18T15:02:30.761Z,102101.13
2023-04-18T15:04:57.742Z,102099.09
2023-04-18T15:07:24.677Z,102095.06
2023-04-18T15:09:51.431Z,102096.44
2023-04-18T15:12:18.242Z,102099.25
2023-04-18T15:14:45.130Z,102093.59
2023-04-18T15:17:11.915Z,102089.22
2023-04-18T15:19:38.683Z,102091.94
2023-04-18T15:22:05.566Z,102095.78
2023-04-18T15:24:32.316Z,102089.44
2023-04-18T15:26:59.134Z,102090.84
2023-04-18T15:29:26.110Z,102092.22
2023-04-18T15:31:52.916Z,102087.09
2023-04-18T15:34:19.708Z,102091.22
2023-04-18T15:36:46.484Z,102085.28
2023-04-18T15:39:13.231Z,102088.41
2023-04-18T15:41:41.948Z,102087.78
2023-04-18T15:44:08.863Z,102086.22
2023-04-18T15:46:36.037Z,102090.09
2023-04-18T15:49:02.881Z,102094.47
2023-04-18T15:51:30.185Z,102092.53
2023-04-18T15:53:56.944Z,102092.59
2023-04-18T15:56:23.821Z,102092.50
2023-04-18T15:58:50.600Z,102091.25
2023-04-18T16:01:17.355Z,102082.59
2023-04-18T16:03:44.251Z,102089.53
2023-04-18T16:06:11.268Z,102081.38
2023-04-18T16:08:38.103Z,102077.03
2023-04-18T16:11:05.320Z,102076.41
2023-04-18T16:13:32.137Z,102083.75
2023-04-18T16:15:58.882Z,102086.50
2023-04-18T16:18:25.711Z,102081.84
2023-04-18T16:20:52.481Z,102084.34
2023-04-18T16:23:20.363Z,102083.81
2023-04-18T16:25:47.153Z,102072.75
2023-04-18T16:28:13.887Z,102082.97
2023-04-18T16:30:43.626Z,102076.66
2023-04-18T16:33:10.666Z,102076.16
2023-04-18T16:35:37.496Z,102076.16
2023-04-18T16:38:04.317Z,102074.56
2023-04-18T16:40:31.856Z,102073.94
2023-04-18T16:42:58.702Z,102076.56
2023-04-18T16:45:25.484Z,102072.66
2023-04-18T16:47:52.301Z,102073.03
2023-04-18T16:50:19.402Z,102078.53
2023-04-18T16:52:46.139Z,102076.25
2023-04-18T16:55:12.925Z,102076.91
2023-04-18T16:57:39.682Z,102071.28
2023-04-18T17:00:06.998Z,102074.28
2023-04-18T17:02:33.875Z,102073.03
2023-04-18T17:05:00.797Z,102074.41
2023-04-18T17:07:27.690Z,102080.31
2023-04-18T17:09:54.490Z,102079.47
2023-04-18T17:12:21.438Z,102084.03
2023-04-18T17:14:48.207Z,102083.72
2023-04-18T17:17:15.469Z,102073.72
2023-04-18T17:19:42.234Z,102083.97
2023-04-18T17:22:08.967Z,102079.88
2023-04-18T17:24:36.035Z,102080.34
2023-04-18T17:27:02.809Z,102083.22
2023-04-18T17:29:29.553Z,102075.69
2023-04-18T17:31:56.784Z,102080.78
2023-04-18T17:34:23.596Z,102082.22
2023-04-18T17:36:50.535Z,102083.91
2023-04-18T17:39:17.460Z,102078.22
2023-04-18T17:41:44.302Z,102079.03
2023-04-18T17:44:11.150Z,102079.94
2023-04-18T17:46:37.992Z,102085.97
2023-04-18T17:49:04.874Z,102079.19
2023-04-18T17:51:31.728Z,102084.63
2023-04-18T17:53:58.524Z,102083.59
2023-04-18T17:56:25.487Z,102082.63
2023-04-18T17:58:53.330Z,102081.97
2023-04-18T18:01:22.271Z,102084.41
2023-04-18T18:03:49.466Z,102084.50
2023-04-18T18:06:16.634Z,102088.53
2023-04-18T18:08:43.583Z,102082.91
2023-04-18T18:11:10.629Z,102081.38
2023-04-18T18:13:38.824Z,102083.97
2023-04-18T18:16:05.714Z,102085.03
2023-04-18T18:18:32.653Z,102081.88
2023-04-18T18:20:59.412Z,102084.47
2023-04-18T18:23:26.230Z,102088.84
2023-04-18T18:25:53.001Z,102093.69
2023-04-18T18:28:19.747Z,102094.75
2023-04-18T18:30:46.537Z,102096.22
2023-04-18T18:33:13.724Z,102098.50
2023-04-18T18:35:40.489Z,102098.56
2023-04-18T18:38:07.341Z,102107.16
2023-04-18T18:40:34.219Z,102111.97
2023-04-18T18:43:00.982Z,102102.56
2023-04-18T18:45:27.797Z,102115.91
2023-04-18T18:47:54.641Z,102119.75
2023-04-18T18:50:21.429Z,102123.56
2023-04-18T18:52:48.326Z,102118.94
2023-04-18T18:55:16.198Z,102125.72
2023-04-18T18:57:42.966Z,102123.81
2023-04-18T19:00:11.085Z,102123.00
2023-04-18T19:02:38.194Z,102129.28
2023-04-18T19:05:05.611Z,102118.53
2023-04-18T19:07:32.364Z,102126.00
2023-04-18T19:10:01.422Z,102134.53
2023-04-18T19:12:29.116Z,102124.13
2023-04-18T19:14:56.081Z,102125.75
2023-04-18T19:17:24.561Z,102135.03
2023-04-18T19:19:51.722Z,102133.88
2023-04-18T19:22:18.581Z,102137.66
2023-04-18T19:24:45.399Z,102134.91
2023-04-18T19:27:12.141Z,102138.91
2023-04-18T19:29:38.968Z,102129.63
2023-04-18T19:32:06.256Z,102130.56
2023-04-18T19:34:32.990Z,102130.94
2023-04-18T19:37:01.080Z,102134.06
2023-04-18T19:39:27.854Z,102137.03
2023-04-18T19:41:54.619Z,102135.53
2023-04-18T19:44:21.409Z,102138.50
2023-04-18T19:46:48.340Z,102153.50
2023-04-18T19:49:15.319Z,102143.09
2023-04-18T19:51:42.188Z,102144.34
2023-04-18T19:54:09.028Z,102146.03
2023-04-18T19:56:35.778Z,102140.91
2023-04-18T19:59:04.627Z,102134.56
2023-04-18T20:01:31.413Z,102138.00
2023-04-18T20:03:59.978Z,102139.19
2023-04-18T20:06:27.113Z,102149.50
2023-04-18T20:08:54.239Z,102141.59
2023-04-18T20:11:21.994Z,102147.78
2023-04-18T20:13:48.894Z,102145.50
2023-04-18T20:16:16.720Z,102149.50
2023-04-18T20:18:44.220Z,102144.81
2023-04-18T20:21:11.165Z,102138.44
2023-04-18T20:23:38.009Z,102146.31
2023-04-18T20:26:04.753Z,102145.00
2023-04-18T20:28:31.569Z,102146.41
2023-04-18T20:30:58.449Z,102147.22
2023-04-18T20:33:25.210Z,102147.72
2023-04-18T20:35:53.639Z,102151.88
2023-04-18T20:38:25.809Z,102149.06
2023-04-18T20:40:54.015Z,102144.72
2023-04-18T20:43:21.237Z,102153.38
2023-04-18T20:45:50.770Z,102139.56
2023-04-18T20:48:17.621Z,102148.06
2023-04-18T20:50:50.605Z,102144.72
2023-04-18T20:53:17.342Z,102148.69
2023-04-18T20:55:44.108Z,102140.50
2023-04-18T20:58:10.919Z,102151.53
2023-04-18T21:00:37.671Z,102151.22
2023-04-18T21:03:04.573Z,102147.88
2023-04-18T21:05:31.478Z,102147.50
2023-04-18T21:07:59.563Z,102144.59
2023-04-18T21:10:26.316Z,102145.00
2023-04-18T21:12:53.212Z,102141.97
2023-04-18T21:15:19.955Z,102150.84
2023-04-18T21:17:46.739Z,102144.53
2023-04-18T21:20:13.539Z,102149.31
2023-04-18T21:22:40.347Z,102145.19
2023-04-18T21:25:07.363Z,102149.88
2023-04-18T21:27:34.203Z,102145.41
2023-04-18T21:30:02.361Z,102148.28
2023-04-18T21:32:30.907Z,102145.28
2023-04-18T21:34:57.839Z,102142.47
2023-04-18T21:37:24.984Z,102147.41
2023-04-18T21:39:52.029Z,102140.84
2023-04-18T21:42:18.798Z,102141.28
2023-04-18T21:44:45.582Z,102139.31
2023-04-18T21:47:12.351Z,102146.69
2023-04-18T21:49:39.118Z,102141.91
2023-04-18T21:52:05.905Z,102139.72
2023-04-18T21:54:32.663Z,102146.31
2023-04-18T21:56:59.487Z,102140.75
2023-04-18T21:59:26.235Z,102136.63
2023-04-18T22:01:52.999Z,102140.53
2023-04-18T22:04:21.768Z,102143.34
2023-04-18T22:06:48.715Z,102132.19
2023-04-18T22:09:18.948Z,102126.41
2023-04-18T22:11:45.800Z,102136.59
2023-04-18T22:14:14.531Z,102137.94
2023-04-18T22:16:42.240Z,102131.97
2023-04-18T22:19:09.353Z,102132.56
2023-04-18T22:21:36.093Z,102130.22
2023-04-18T22:24:02.822Z,102121.91
2023-04-18T22:26:29.566Z,102117.97
2023-04-18T22:28:56.304Z,102122.38
2023-04-18T22:31:23.140Z,102113.91
2023-04-18T22:33:50.055Z,102112.22
2023-04-18T22:36:16.814Z,102115.75
2023-04-18T22:38:43.554Z,102112.41
2023-04-18T22:41:10.337Z,102117.09
2023-04-18T22:43:37.114Z,102120.66
2023-04-18T22:46:03.930Z,102128.50
2023-04-18T22:48:31.066Z,102122.47
2023-04-18T22:50:57.839Z,102121.81
2023-04-18T22:53:24.560Z,102124.53
2023-04-18T22:55:51.606Z,102136.28
2023-04-18T22:58:18.379Z,102124.88
2023-04-18T23:00:45.150Z,102121.97
2023-04-18T23:03:11.994Z,102120.38
2023-04-18T23:05:38.873Z,102117.94
2023-04-18T23:08:06.676Z,102118.66
2023-04-18T23:10:33.440Z,102111.16
2023-04-18T23:13:00.418Z,102121.38
2023-04-18T23:15:27.267Z,102118.84
2023-04-18T23:17:54.147Z,102125.28
2023-04-18T23:20:21.155Z,102122.13
2023-04-18T23:22:50.007Z,102119.34
2023-04-18T23:25:16.780Z,102115.91
2023-04-18T23:27:43.546Z,102114.72
2023-04-18T23:30:10.311Z,102116.78
2023-04-18T23:32:37.140Z,102115.75
2023-04-18T23:35:04.065Z,102114.41
2023-04-18T23:37:31.350Z,102104.03
2023-04-18T23:39:58.133Z,102111.84
2023-04-18T23:42:24.904Z,102116.22
2023-04-18T23:44:51.678Z,102106.44
2023-04-18T23:47:18.610Z,102094.81
2023-04-18T23:49:45.590Z,102111.84
2023-04-18T23:52:12.346Z,102112.34
2023-04-18T23:54:39.102Z,102104.88
2023-04-18T23:57:05.976Z,102106.06
2023-04-18T23:59:32.719Z,102106.06
